Time;durP1;ratioP1;P1;durP2;ratioP2;P2;SDS_P1;SDS_P2;PMS_P1;PMS_P2;Temp;Humidity;BMP_temperature;BMP_pressure;BME280_temperature;BME280_humidity;BME280_pressure;Samples;Min_cycle;Max_cycle;Signal;HPM_P1;HPM_P2
2022/06/21 00:00:23;;;;;;;;;;;;;;;14.68;52.35;97990.81;5004222;28;20426;-77
2022/06/21 00:02:53;;;;;;;;;;;;;;;14.72;51.74;97985.50;4996915;28;19926;-77
2022/06/21 00:05:24;;;;;;;;;;;;;;;14.53;51.87;97982.44;4974906;28;19982;-77
2022/06/21 00:07:53;;;;;;;;;;;;;;;14.51;52.27;97974.59;5005941;28;19929;-77
2022/06/21 00:10:21;;;;;;;;;;;;;;;14.54;52.28;97975.84;5003895;28;19933;-76
2022/06/21 00:12:49;;;;;;;;;;;;;;;14.63;51.69;97974.63;5001276;28;20013;-77
2022/06/21 00:15:19;;;;;;;;;;;;;;;14.80;51.74;97967.38;5007748;28;20023;-75
2022/06/21 00:17:48;;;;;;;;;;;;;;;14.73;51.81;97972.63;5004356;28;19926;-76
2022/06/21 00:20:20;;;;;;;;;;;;;;;14.52;52.50;97978.13;4990344;28;19926;-76
2022/06/21 00:22:49;;;;;;;;;;;;;;;14.48;52.94;97982.66;5004656;28;19925;-77
2022/06/21 00:25:19;;;;;;;;;;;;;;;14.50;52.97;97972.19;5000004;28;19929;-76
2022/06/21 00:27:47;;;;;;;;;;;;;;;14.54;52.88;97973.09;4999200;28;20028;-76
2022/06/21 00:30:15;;;;;;;;;;;;;;;14.45;53.77;97970.44;4992443;28;19929;-76
2022/06/21 00:32:45;;;;;;;;;;;;;;;14.56;52.91;97977.13;4993869;28;20020;-76
2022/06/21 00:35:18;;;;;;;;;;;;;;;14.56;52.57;97979.06;4996496;28;19929;-76
2022/06/21 00:40:38;;;;;;;;;;;;;;;14.32;53.55;97980.47;4998163;28;20706;-77
2022/06/21 00:43:09;;;;;;;;;;;;;;;14.10;53.99;97981.63;5002563;28;19936;-77
2022/06/21 00:45:38;;;;;;;;;;;;;;;14.03;54.54;97986.03;5004415;28;20030;-77
2022/06/21 00:48:32;;;;;;;;;;;;;;;13.71;55.74;97984.78;5001315;28;19953;-77
2022/06/21 00:51:08;;;;;;;;;;;;;;;13.96;55.02;97986.56;5003042;28;19926;-77
2022/06/21 00:53:37;;;;;;;;;;;;;;;13.99;54.81;97985.09;4999848;28;20057;-76
2022/06/21 00:56:08;;;;;;;;;;;;;;;13.77;55.36;97992.44;4993066;28;19934;-77
2022/06/21 00:58:37;;;;;;;;;;;;;;;13.61;56.02;97986.75;4998840;28;19926;-77
2022/06/21 01:01:09;;;;;;;;;;;;;;;13.58;56.28;97987.41;5001164;28;19930;-76
2022/06/21 01:03:38;;;;;;;;;;;;;;;13.43;56.95;97978.97;4998931;28;19940;-77
2022/06/21 01:06:11;;;;;;;;;;;;;;;13.65;55.82;97983.38;4980280;28;19926;-76
2022/06/21 01:08:41;;;;;;;;;;;;;;;13.47;56.43;97986.16;4991631;28;19965;-76
2022/06/21 01:11:10;;;;;;;;;;;;;;;13.53;56.43;97976.69;4993086;28;19964;-76
2022/06/21 01:13:43;;;;;;;;;;;;;;;13.54;56.69;97974.75;4994091;28;19925;-76
2022/06/21 01:16:11;;;;;;;;;;;;;;;13.63;56.34;97979.03;4996516;28;20776;-76
2022/06/21 01:18:39;;;;;;;;;;;;;;;13.73;55.71;97979.78;4999148;28;19981;-76
2022/06/21 01:21:12;;;;;;;;;;;;;;;13.56;56.05;97981.47;4998794;28;19996;-76
2022/06/21 01:23:49;;;;;;;;;;;;;;;13.31;56.46;97990.56;5003997;28;20139;-76
2022/06/21 01:26:22;;;;;;;;;;;;;;;13.37;56.48;97986.56;4996981;28;19961;-75
2022/06/21 01:29:16;;;;;;;;;;;;;;;13.58;55.98;97990.16;4995912;28;19937;-75
2022/06/21 01:31:44;;;;;;;;;;;;;;;13.59;55.41;97994.47;4997441;28;19937;-76
2022/06/21 01:34:29;;;;;;;;;;;;;;;13.62;55.02;97993.81;5001562;28;20387;-76
2022/06/21 01:37:03;;;;;;;;;;;;;;;13.52;55.20;97985.19;4994636;28;19945;-76
2022/06/21 01:39:32;;;;;;;;;;;;;;;13.41;55.61;97979.28;5006227;28;19953;-76
2022/06/21 01:42:03;;;;;;;;;;;;;;;13.45;55.35;97982.97;5011082;28;19944;-76
2022/06/21 01:44:33;;;;;;;;;;;;;;;13.48;55.53;97981.53;4964829;28;19926;-76
2022/06/21 01:47:02;;;;;;;;;;;;;;;13.44;55.52;97981.38;5004634;28;19938;-76
2022/06/21 01:49:31;;;;;;;;;;;;;;;13.36;55.27;97980.28;5007793;28;19925;-76
2022/06/21 01:51:59;;;;;;;;;;;;;;;12.94;56.81;97983.91;4999318;28;19961;-77
2022/06/21 01:54:53;;;;;;;;;;;;;;;13.01;56.99;97984.25;5007595;28;19929;-77
2022/06/21 01:57:26;;;;;;;;;;;;;;;13.06;56.75;97979.41;4994790;28;19940;-77
2022/06/21 01:59:58;;;;;;;;;;;;;;;13.13;56.68;97981.63;5003905;28;19934;-77
2022/06/21 02:02:28;;;;;;;;;;;;;;;13.00;56.95;97972.53;4995507;28;20041;-77
2022/06/21 02:04:57;;;;;;;;;;;;;;;13.10;56.72;97976.81;5006953;28;19930;-77
2022/06/21 02:07:42;;;;;;;;;;;;;;;13.08;56.82;97979.88;5008221;28;19956;-77
2022/06/21 02:10:14;;;;;;;;;;;;;;;13.21;56.10;97971.78;5010625;28;19956;-77
2022/06/21 02:12:53;;;;;;;;;;;;;;;12.94;57.08;97968.34;4985969;28;19926;-76
2022/06/21 02:15:24;;;;;;;;;;;;;;;12.81;57.33;97969.38;5003400;28;19936;-77
2022/06/21 02:17:52;;;;;;;;;;;;;;;12.69;57.58;97966.50;5004108;28;20029;-77
2022/06/21 02:20:22;;;;;;;;;;;;;;;12.47;57.63;97956.59;5006744;28;19951;-77
2022/06/21 02:22:50;;;;;;;;;;;;;;;12.49;57.76;97959.78;4995330;28;19926;-76
2022/06/21 02:25:19;;;;;;;;;;;;;;;12.46;57.79;97963.16;5001431;28;19937;-77
2022/06/21 02:27:47;;;;;;;;;;;;;;;12.33;57.90;97964.94;5000604;28;19941;-77
2022/06/21 02:30:16;;;;;;;;;;;;;;;12.54;57.28;97959.63;5007970;28;19992;-77
2022/06/21 02:33:13;;;;;;;;;;;;;;;12.59;57.10;97951.28;5006463;28;20139;-77
2022/06/21 02:35:42;;;;;;;;;;;;;;;12.55;57.10;97951.13;5016316;28;19984;-77
2022/06/21 02:38:12;;;;;;;;;;;;;;;12.41;57.31;97952.41;5015191;28;20016;-77
2022/06/21 02:40:44;;;;;;;;;;;;;;;12.25;57.94;97943.94;4995266;28;20336;-77
2022/06/21 02:43:13;;;;;;;;;;;;;;;12.27;57.46;97947.16;5011543;28;20023;-77
2022/06/21 02:45:43;;;;;;;;;;;;;;;11.86;58.90;97953.06;5012062;28;19937;-77
2022/06/21 02:48:13;;;;;;;;;;;;;;;11.63;59.45;97947.72;5014496;28;19984;-77
2022/06/21 02:53:38;;;;;;;;;;;;;;;11.76;59.18;97951.41;5012773;28;20029;-77
2022/06/21 02:56:08;;;;;;;;;;;;;;;11.71;59.24;97949.63;4978600;28;19999;-77
2022/06/21 02:58:37;;;;;;;;;;;;;;;11.75;58.79;97955.25;5014046;28;19936;-76
2022/06/21 03:01:11;;;;;;;;;;;;;;;11.80;58.80;97952.38;5008454;28;19925;-77
2022/06/21 03:03:42;;;;;;;;;;;;;;;11.85;58.71;97954.97;5020434;28;19925;-77
2022/06/21 03:06:10;;;;;;;;;;;;;;;11.76;58.69;97946.75;4995025;28;19932;-77
2022/06/21 03:08:45;;;;;;;;;;;;;;;11.65;59.40;97959.06;5010291;28;20389;-77
2022/06/21 03:11:13;;;;;;;;;;;;;;;11.36;60.06;97951.47;5009514;28;19976;-77
2022/06/21 03:13:42;;;;;;;;;;;;;;;11.34;60.16;97945.53;5011878;28;20252;-77
2022/06/21 03:16:11;;;;;;;;;;;;;;;11.41;60.17;97940.47;5011510;28;20246;-76
2022/06/21 03:18:39;;;;;;;;;;;;;;;11.72;59.54;97945.00;4980573;28;20355;-77
2022/06/21 03:21:12;;;;;;;;;;;;;;;11.71;59.07;97932.50;5025523;28;19934;-77
2022/06/21 03:23:40;;;;;;;;;;;;;;;11.79;58.84;97934.44;5021645;28;20026;-77
2022/06/21 03:26:09;;;;;;;;;;;;;;;11.59;59.59;97932.31;5009162;28;19972;-76
2022/06/21 03:28:38;;;;;;;;;;;;;;;11.56;59.75;97931.06;4977482;28;19948;-76
2022/06/21 03:34:03;;;;;;;;;;;;;;;11.49;59.92;97945.09;4995753;28;19926;-77
2022/06/21 03:36:33;;;;;;;;;;;;;;;11.43;60.01;97943.66;4993395;28;19925;-77
2022/06/21 03:39:02;;;;;;;;;;;;;;;11.59;59.83;97940.50;5009076;28;20005;-77
2022/06/21 03:41:44;;;;;;;;;;;;;;;11.61;59.67;97943.69;4993217;28;20303;-77
2022/06/21 03:44:20;;;;;;;;;;;;;;;11.51;59.83;97951.03;4993836;28;19932;-77
2022/06/21 03:46:49;;;;;;;;;;;;;;;11.69;59.56;97953.81;5013754;28;20064;-77
2022/06/21 03:49:20;;;;;;;;;;;;;;;11.73;58.92;97952.06;4996103;28;19980;-77
2022/06/21 03:51:50;;;;;;;;;;;;;;;11.79;58.84;97945.34;5011829;28;19925;-77
2022/06/21 03:54:20;;;;;;;;;;;;;;;11.82;58.62;97954.81;5015430;28;19928;-77
2022/06/21 03:56:49;;;;;;;;;;;;;;;11.57;59.77;97959.06;5011524;28;19991;-77
2022/06/21 03:59:20;;;;;;;;;;;;;;;11.71;59.39;97959.72;5012015;28;19925;-77
2022/06/21 04:01:49;;;;;;;;;;;;;;;11.85;59.28;97954.19;5008027;28;19925;-77
2022/06/21 04:04:22;;;;;;;;;;;;;;;11.97;59.07;97955.16;5010008;28;19988;-77
2022/06/21 04:06:54;;;;;;;;;;;;;;;12.01;58.64;97963.47;5009449;28;20008;-76
2022/06/21 04:12:22;;;;;;;;;;;;;;;12.22;58.14;97977.28;5019029;28;19937;-76
2022/06/21 04:14:54;;;;;;;;;;;;;;;11.96;58.92;97966.34;5014918;28;19941;-77
2022/06/21 04:20:18;;;;;;;;;;;;;;;12.23;58.32;97970.69;5024528;28;19925;-77
2022/06/21 04:22:50;;;;;;;;;;;;;;;12.10;58.52;97961.56;5003319;28;19925;-77
2022/06/21 04:25:20;;;;;;;;;;;;;;;12.12;58.55;97963.97;5015878;28;19925;-76
2022/06/21 04:27:49;;;;;;;;;;;;;;;12.12;58.37;97969.41;5011302;28;19971;-76
2022/06/21 04:33:13;;;;;;;;;;;;;;;12.19;58.60;97961.56;4999444;28;19944;-77
2022/06/21 04:35:42;;;;;;;;;;;;;;;12.32;58.47;97957.88;4999596;28;19980;-76
2022/06/21 04:38:13;;;;;;;;;;;;;;;12.36;58.58;97964.31;4997297;28;20357;-77
2022/06/21 04:40:41;;;;;;;;;;;;;;;12.59;57.74;97962.19;4998628;28;19933;-77
2022/06/21 04:43:10;;;;;;;;;;;;;;;12.66;57.31;97961.69;4996672;28;19932;-77
2022/06/21 04:45:46;;;;;;;;;;;;;;;12.60;57.93;97952.88;4994859;28;19968;-76
2022/06/21 04:48:19;;;;;;;;;;;;;;;12.24;58.98;97953.22;5001596;28;19932;-77
2022/06/21 04:50:48;;;;;;;;;;;;;;;12.56;58.66;97955.44;4990611;28;19929;-77
2022/06/21 04:53:19;;;;;;;;;;;;;;;12.70;58.06;97949.03;4998146;28;20407;-76
2022/06/21 04:55:50;;;;;;;;;;;;;;;13.05;56.84;97947.00;4990454;28;20278;-77
2022/06/21 04:58:18;;;;;;;;;;;;;;;13.10;56.58;97952.25;4993863;28;20392;-77
2022/06/21 05:00:47;;;;;;;;;;;;;;;13.27;56.14;97944.06;4991507;28;19934;-76
2022/06/21 05:03:20;;;;;;;;;;;;;;;13.24;56.25;97943.91;4994903;28;19941;-77
2022/06/21 05:05:49;;;;;;;;;;;;;;;13.17;56.58;97940.88;5006780;28;20380;-78
2022/06/21 05:08:20;;;;;;;;;;;;;;;13.29;56.73;97941.00;4993871;28;19980;-77
2022/06/21 05:10:49;;;;;;;;;;;;;;;13.19;56.55;97936.66;4996224;28;19998;-77
2022/06/21 05:13:19;;;;;;;;;;;;;;;13.16;56.48;97936.53;5003094;28;19972;-78
2022/06/21 05:15:50;;;;;;;;;;;;;;;13.26;56.43;97931.56;5005462;28;19937;-79
2022/06/21 05:18:20;;;;;;;;;;;;;;;13.30;56.32;97928.94;4995685;28;20407;-79
2022/06/21 05:20:49;;;;;;;;;;;;;;;13.18;56.83;97923.38;5001334;28;19926;-80
2022/06/21 05:23:19;;;;;;;;;;;;;;;13.39;56.16;97918.78;4987443;28;19960;-81
2022/06/21 05:26:00;;;;;;;;;;;;;;;13.39;56.07;97910.59;4996622;28;20347;-80
2022/06/21 05:28:37;;;;;;;;;;;;;;;13.62;55.66;97908.38;5010943;28;20052;-78
2022/06/21 05:31:23;;;;;;;;;;;;;;;13.66;55.79;97903.06;4987999;28;19949;-79
2022/06/21 05:33:54;;;;;;;;;;;;;;;13.60;55.74;97903.25;5005620;28;20237;-79
2022/06/21 05:36:43;;;;;;;;;;;;;;;13.66;55.94;97903.88;5006007;28;19962;-79
2022/06/21 05:39:20;;;;;;;;;;;;;;;13.69;55.81;97914.13;4998956;28;19926;-80
2022/06/21 05:41:56;;;;;;;;;;;;;;;14.09;54.65;97908.19;5012572;28;19960;-79
2022/06/21 05:44:28;;;;;;;;;;;;;;;14.11;54.79;97912.22;4984393;28;20289;-79
2022/06/21 05:46:57;;;;;;;;;;;;;;;14.16;54.34;97911.19;4998093;28;19996;-79
2022/06/21 05:49:28;;;;;;;;;;;;;;;14.20;53.43;97912.13;5003667;28;19926;-80
2022/06/21 06:28:51;;;;;;;;;;;;;;;15.15;50.50;97943.19;4807288;29;19936;-81
2022/06/21 06:40:23;;;;;;;;;;;;;;;15.17;50.78;97947.16;4937400;23;20083;-61
2022/06/21 06:43:12;;;;;;;;;;;;;;;15.53;50.41;97936.59;5002983;28;20532;-61
2022/06/21 06:46:00;;;;;;;;;;;;;;;15.46;50.27;97939.91;5006392;28;19929;-60
2022/06/21 06:52:25;;;;;;;;;;;;;;;15.96;49.54;97955.19;5012223;28;19925;-57
2022/06/21 06:55:19;;;;;;;;;;;;;;;16.16;49.41;97959.69;5008016;28;19925;-60
2022/06/21 06:58:28;;;;;;;;;;;;;;;15.99;49.89;97965.47;5010557;28;19930;-56
2022/06/21 07:01:21;;;;;;;;;;;;;;;16.04;50.20;97959.75;5012063;28;20396;-60
2022/06/21 07:04:09;;;;;;;;;;;;;;;16.06;49.94;97976.63;5013229;28;19933;-59
2022/06/21 07:07:03;;;;;;;;;;;;;;;16.33;49.25;97969.59;5005935;28;20270;-59
2022/06/21 07:09:32;;;;;;;;;;;;;;;16.48;49.80;97954.34;5004830;28;19926;-60
2022/06/21 07:12:02;;;;;;;;;;;;;;;16.55;49.15;97959.22;5007747;28;19930;-60
2022/06/21 07:14:31;;;;;;;;;;;;;;;16.73;48.71;97960.56;5009529;28;20020;-59
2022/06/21 07:17:03;;;;;;;;;;;;;;;16.69;48.99;97952.19;5005438;28;19934;-59
2022/06/21 07:19:31;;;;;;;;;;;;;;;16.63;49.72;97950.84;5007893;28;20440;-60
2022/06/21 07:21:59;;;;;;;;;;;;;;;16.68;49.05;97953.34;5006674;28;19957;-59
2022/06/21 07:24:28;;;;;;;;;;;;;;;16.57;49.16;97957.75;5005669;28;19965;-61
2022/06/21 07:27:21;;;;;;;;;;;;;;;16.71;49.27;97949.13;5001809;28;19934;-60
2022/06/21 07:29:53;;;;;;;;;;;;;;;16.72;48.40;97946.06;5004123;28;19984;-60
2022/06/21 07:32:23;;;;;;;;;;;;;;;16.99;49.44;97936.19;5005050;28;20359;-56
2022/06/21 07:34:52;;;;;;;;;;;;;;;17.12;47.46;97933.34;5006595;28;19929;-60
2022/06/21 07:37:21;;;;;;;;;;;;;;;16.87;48.23;97938.97;4996968;28;19925;-60
2022/06/21 07:39:50;;;;;;;;;;;;;;;16.99;48.24;97936.19;5008900;28;19955;-58
2022/06/21 07:42:19;;;;;;;;;;;;;;;17.15;47.51;97938.94;5001941;28;19936;-60
2022/06/21 07:44:50;;;;;;;;;;;;;;;17.16;47.37;97928.75;5008379;28;19929;-60
2022/06/21 07:47:21;;;;;;;;;;;;;;;17.18;47.49;97926.44;5008730;28;19926;-61
2022/06/21 07:49:51;;;;;;;;;;;;;;;17.28;47.70;97925.91;5008621;28;20016;-59
2022/06/21 07:52:21;;;;;;;;;;;;;;;17.24;47.75;97925.81;5008655;28;19925;-61
2022/06/21 07:54:51;;;;;;;;;;;;;;;17.31;47.37;97933.44;5007259;28;20016;-60
2022/06/21 07:57:20;;;;;;;;;;;;;;;17.49;46.63;97925.63;5006933;28;19926;-59
2022/06/21 07:59:50;;;;;;;;;;;;;;;17.55;46.83;97925.00;5005000;28;19931;-60
2022/06/21 08:07:51;;;;;;;;;;;;;;;17.61;47.03;97939.25;5003740;28;19925;-57
2022/06/21 08:10:20;;;;;;;;;;;;;;;17.61;46.75;97944.75;5006764;28;19934;-61
2022/06/21 08:12:48;;;;;;;;;;;;;;;17.90;46.97;97940.75;4996829;28;19933;-61
2022/06/21 08:15:18;;;;;;;;;;;;;;;17.99;45.52;97943.28;5003146;28;20016;-60
2022/06/21 08:17:52;;;;;;;;;;;;;;;18.28;45.09;97944.69;5006403;28;20751;-60
2022/06/21 08:20:20;;;;;;;;;;;;;;;18.41;45.09;97945.34;5006440;28;20307;-61
2022/06/21 08:22:50;;;;;;;;;;;;;;;18.50;44.17;97945.94;5007331;28;19929;-59
2022/06/21 08:25:24;;;;;;;;;;;;;;;18.44;43.78;97937.19;5012675;28;19991;-61
2022/06/21 08:27:53;;;;;;;;;;;;;;;18.56;42.59;97925.22;5009361;28;20024;-61
2022/06/21 08:30:23;;;;;;;;;;;;;;;18.58;43.28;97920.13;5010107;28;20316;-59
2022/06/21 08:32:53;;;;;;;;;;;;;;;18.62;44.03;97915.50;5007985;28;20354;-61
2022/06/21 08:35:23;;;;;;;;;;;;;;;18.94;42.36;97926.34;5010852;28;19933;-61
2022/06/21 08:37:52;;;;;;;;;;;;;;;18.88;41.81;97936.06;5006004;28;19940;-59
2022/06/21 08:40:40;;;;;;;;;;;;;;;18.62;42.13;97932.00;4992969;28;20026;-61
2022/06/21 08:43:20;;;;;;;;;;;;;;;18.73;42.73;97938.53;4960425;28;19940;-60
2022/06/21 08:45:57;;;;;;;;;;;;;;;18.93;41.66;97931.06;4984406;28;19930;-61
2022/06/21 08:51:43;;;;;;;;;;;;;;;19.13;39.90;97922.75;4984346;28;20353;-61
2022/06/21 08:54:14;;;;;;;;;;;;;;;19.18;40.81;97920.50;4986200;28;20200;-62
2022/06/21 08:56:43;;;;;;;;;;;;;;;19.07;40.80;97914.81;4979607;28;20300;-60
2022/06/21 08:59:13;;;;;;;;;;;;;;;19.24;40.00;97926.47;4977104;28;20490;-61
2022/06/21 09:01:45;;;;;;;;;;;;;;;19.29;40.63;97907.69;4980921;28;20457;-62
2022/06/21 09:04:20;;;;;;;;;;;;;;;19.42;41.78;97907.47;4983418;28;20174;-61
2022/06/21 09:06:53;;;;;;;;;;;;;;;19.39;41.67;97911.78;4986077;28;20301;-63
2022/06/21 09:09:27;;;;;;;;;;;;;;;19.51;41.23;97905.28;4985054;28;20396;-62
2022/06/21 09:11:59;;;;;;;;;;;;;;;19.42;41.21;97886.25;4983900;28;19930;-59
2022/06/21 09:14:35;;;;;;;;;;;;;;;19.60;41.92;97892.03;4985103;28;19930;-59
2022/06/21 09:17:06;;;;;;;;;;;;;;;19.78;41.79;97886.81;4975843;28;20020;-59
2022/06/21 09:19:41;;;;;;;;;;;;;;;20.00;40.49;97888.66;4975029;28;19925;-63
2022/06/21 09:22:10;;;;;;;;;;;;;;;19.98;40.03;97890.22;4973276;28;19930;-60
2022/06/21 09:24:40;;;;;;;;;;;;;;;20.22;39.83;97886.97;4984618;28;19936;-61
2022/06/21 09:27:10;;;;;;;;;;;;;;;20.12;39.95;97879.38;4994903;28;20263;-61
2022/06/21 09:29:40;;;;;;;;;;;;;;;20.23;39.30;97873.97;4985534;28;20333;-60
2022/06/21 09:32:13;;;;;;;;;;;;;;;20.23;40.37;97863.72;4985156;28;20422;-61
2022/06/21 09:34:42;;;;;;;;;;;;;;;20.34;39.27;97863.84;4981243;28;19977;-62
2022/06/21 09:37:13;;;;;;;;;;;;;;;20.45;39.39;97875.03;4985261;28;20016;-62
2022/06/21 09:39:44;;;;;;;;;;;;;;;20.34;38.05;97861.88;4989094;28;19932;-60
2022/06/21 09:42:14;;;;;;;;;;;;;;;20.40;37.93;97837.53;4991850;28;20362;-62
2022/06/21 09:44:43;;;;;;;;;;;;;;;20.36;38.93;97828.44;4993723;28;19926;-61
2022/06/21 09:47:16;;;;;;;;;;;;;;;20.23;38.75;97852.69;4976703;28;20527;-62
2022/06/21 09:49:45;;;;;;;;;;;;;;;20.22;39.30;97848.38;4995795;28;19961;-61
2022/06/21 09:52:20;;;;;;;;;;;;;;;20.48;38.81;97855.00;4987300;28;19961;-63
2022/06/21 09:54:51;;;;;;;;;;;;;;;20.40;39.12;97852.13;4992241;28;19929;-62
2022/06/21 09:57:20;;;;;;;;;;;;;;;20.63;37.14;97848.44;4998532;28;19983;-62
2022/06/21 09:59:50;;;;;;;;;;;;;;;20.65;37.93;97835.06;4985933;28;19930;-60
2022/06/21 10:02:22;;;;;;;;;;;;;;;20.69;36.03;97827.59;4995124;28;20116;-62
2022/06/21 10:04:54;;;;;;;;;;;;;;;20.93;35.28;97838.09;4994446;28;20376;-59
2022/06/21 10:07:27;;;;;;;;;;;;;;;20.82;35.03;97828.91;5004154;28;20381;-63
2022/06/21 10:09:58;;;;;;;;;;;;;;;20.90;36.33;97844.38;4981798;28;19930;-59
2022/06/21 10:12:30;;;;;;;;;;;;;;;20.98;35.75;97838.88;4989512;28;20016;-60
2022/06/21 10:15:13;;;;;;;;;;;;;;;21.01;35.60;97835.38;4983036;28;19957;-59
2022/06/21 10:17:46;;;;;;;;;;;;;;;20.98;36.09;97825.09;4988952;28;20298;-57
2022/06/21 10:20:20;;;;;;;;;;;;;;;21.09;34.86;97812.16;4999629;28;19925;-56
2022/06/21 10:23:18;;;;;;;;;;;;;;;21.08;33.45;97813.34;4995165;28;19934;-60
2022/06/21 10:25:49;;;;;;;;;;;;;;;21.20;34.00;97826.84;4975043;28;19996;-56
2022/06/21 10:31:47;;;;;;;;;;;;;;;21.14;33.69;97817.31;4991151;28;19933;-59
2022/06/21 10:34:33;;;;;;;;;;;;;;;21.23;32.65;97819.75;4993185;28;19961;-59
2022/06/21 10:37:07;;;;;;;;;;;;;;;21.29;32.66;97810.72;4987219;28;19936;-60
2022/06/21 10:39:58;;;;;;;;;;;;;;;21.17;33.79;97809.06;4994390;28;19926;-59
2022/06/21 10:42:49;;;;;;;;;;;;;;;21.15;33.06;97805.13;5003790;28;19930;-62
2022/06/21 10:45:23;;;;;;;;;;;;;;;21.16;32.49;97806.69;5006986;28;20388;-56
2022/06/21 10:47:55;;;;;;;;;;;;;;;21.32;32.95;97807.22;5003703;28;19984;-57
2022/06/21 10:50:27;;;;;;;;;;;;;;;21.49;32.36;97807.72;5006720;28;19988;-55
2022/06/21 10:53:11;;;;;;;;;;;;;;;21.54;31.73;97799.06;5009098;28;20390;-57
2022/06/21 10:55:46;;;;;;;;;;;;;;;21.30;32.17;97789.44;5009504;28;20369;-59
2022/06/21 10:58:19;;;;;;;;;;;;;;;21.46;32.21;97784.41;5007675;28;19933;-57
2022/06/21 11:03:59;;;;;;;;;;;;;;;21.55;31.96;97784.06;5007401;28;19976;-55
2022/06/21 11:06:48;;;;;;;;;;;;;;;21.70;29.79;97764.41;5006027;28;19948;-59
2022/06/21 11:09:20;;;;;;;;;;;;;;;21.86;31.09;97766.03;5003378;28;19926;-58
2022/06/21 11:15:02;;;;;;;;;;;;;;;21.75;31.09;97766.00;5002734;28;19965;-57
2022/06/21 11:17:33;;;;;;;;;;;;;;;21.91;30.49;97760.13;5002150;28;19934;-56
2022/06/21 11:20:03;;;;;;;;;;;;;;;22.04;31.01;97757.78;5002798;28;19929;-56
2022/06/21 11:22:43;;;;;;;;;;;;;;;21.98;30.67;97758.19;4985556;28;19932;-58
2022/06/21 11:25:18;;;;;;;;;;;;;;;21.86;30.71;97760.50;5004298;28;19952;-57
2022/06/21 11:27:49;;;;;;;;;;;;;;;21.96;29.78;97757.78;5007849;28;20022;-57
2022/06/21 11:30:18;;;;;;;;;;;;;;;22.18;29.16;97766.16;5001361;28;19930;-57
2022/06/21 11:32:47;;;;;;;;;;;;;;;22.17;28.87;97762.63;5005897;28;20293;-54
2022/06/21 11:35:18;;;;;;;;;;;;;;;22.26;28.78;97759.47;4998465;28;19937;-57
2022/06/21 11:37:50;;;;;;;;;;;;;;;22.24;28.73;97761.84;5002048;28;19933;-58
2022/06/21 11:40:24;;;;;;;;;;;;;;;22.34;28.71;97758.31;4992752;28;19926;-57
2022/06/21 11:42:54;;;;;;;;;;;;;;;22.56;28.38;97758.31;4986961;28;19932;-57
2022/06/21 11:45:26;;;;;;;;;;;;;;;22.55;27.68;97756.75;4986975;28;19930;-57
2022/06/21 11:47:57;;;;;;;;;;;;;;;22.50;29.30;97746.84;4985890;28;19925;-57
2022/06/21 11:50:27;;;;;;;;;;;;;;;22.54;30.52;97744.09;4985786;28;19926;-58
2022/06/21 11:53:05;;;;;;;;;;;;;;;22.56;29.40;97744.47;4988629;28;19934;-57
2022/06/21 11:55:36;;;;;;;;;;;;;;;22.58;29.61;97747.63;4986201;28;19978;-58
2022/06/21 11:58:08;;;;;;;;;;;;;;;22.73;28.30;97743.69;4988928;28;19926;-57
2022/06/21 12:00:39;;;;;;;;;;;;;;;22.61;29.11;97738.56;4986239;28;20489;-58
2022/06/21 12:03:08;;;;;;;;;;;;;;;22.50;29.98;97738.53;4986684;28;19929;-58
2022/06/21 12:05:38;;;;;;;;;;;;;;;22.59;29.77;97735.41;4988878;28;20442;-59
2022/06/21 12:08:09;;;;;;;;;;;;;;;22.72;30.79;97736.56;4988882;28;20382;-59
2022/06/21 12:10:42;;;;;;;;;;;;;;;22.65;29.22;97726.28;4988718;28;19930;-59
2022/06/21 12:13:37;;;;;;;;;;;;;;;22.79;29.70;97730.22;4986522;28;19926;-59
2022/06/21 12:16:15;;;;;;;;;;;;;;;22.79;31.01;97721.94;4990951;28;20322;-58
2022/06/21 12:18:45;;;;;;;;;;;;;;;22.74;30.51;97718.41;4981780;28;19952;-59
2022/06/21 12:21:15;;;;;;;;;;;;;;;22.86;29.48;97719.16;4986520;28;19930;-59
2022/06/21 12:23:44;;;;;;;;;;;;;;;22.92;29.46;97712.84;4988285;28;20366;-60
2022/06/21 12:26:15;;;;;;;;;;;;;;;23.07;29.38;97707.31;4985456;28;19998;-57
2022/06/21 12:28:43;;;;;;;;;;;;;;;23.12;31.31;97698.59;4986862;28;19965;-59
2022/06/21 12:31:14;;;;;;;;;;;;;;;23.17;30.68;97698.97;4967864;28;19932;-60
2022/06/21 12:33:43;;;;;;;;;;;;;;;23.35;30.93;97698.13;4986727;28;20221;-59
2022/06/21 12:36:22;;;;;;;;;;;;;;;23.50;30.64;97685.78;4983584;28;19926;-58
2022/06/21 12:39:16;;;;;;;;;;;;;;;23.83;28.16;97687.25;4986083;28;19933;-59
2022/06/21 12:41:52;;;;;;;;;;;;;;;23.73;29.59;97682.53;5002612;28;19937;-57
2022/06/21 12:44:25;;;;;;;;;;;;;;;23.81;28.49;97673.00;5006115;28;19926;-58
2022/06/21 12:46:56;;;;;;;;;;;;;;;24.03;27.19;97680.00;5006168;28;19995;-58
2022/06/21 12:49:34;;;;;;;;;;;;;;;23.95;27.69;97667.34;5006721;28;19926;-59
2022/06/21 12:52:04;;;;;;;;;;;;;;;24.25;26.29;97675.06;5006958;28;19979;-58
2022/06/21 12:54:42;;;;;;;;;;;;;;;24.12;29.50;97681.50;5007087;28;19929;-59
2022/06/21 12:57:18;;;;;;;;;;;;;;;23.93;30.32;97672.53;5002291;28;19933;-55
2022/06/21 13:00:05;;;;;;;;;;;;;;;23.85;27.01;97668.19;5005743;28;19925;-58
2022/06/21 13:02:38;;;;;;;;;;;;;;;23.68;27.43;97658.00;5004063;28;19926;-59
2022/06/21 13:05:12;;;;;;;;;;;;;;;23.76;28.98;97649.25;5006583;28;19936;-59
2022/06/21 13:07:45;;;;;;;;;;;;;;;23.76;29.03;97643.69;5008880;28;19926;-59
2022/06/21 13:10:18;;;;;;;;;;;;;;;23.86;31.71;97641.25;5005932;28;20266;-59
2022/06/21 13:12:50;;;;;;;;;;;;;;;23.77;32.66;97633.38;5005700;28;19925;-59
2022/06/21 13:15:21;;;;;;;;;;;;;;;23.74;28.66;97623.88;5006343;28;20332;-58
2022/06/21 13:18:05;;;;;;;;;;;;;;;23.74;29.11;97601.69;5007297;28;19936;-59
2022/06/21 13:20:41;;;;;;;;;;;;;;;23.92;29.55;97587.72;5008441;28;19925;-58
2022/06/21 13:23:12;;;;;;;;;;;;;;;24.18;28.06;97591.06;5005710;28;19933;-53
2022/06/21 13:25:47;;;;;;;;;;;;;;;24.20;27.84;97580.34;5003174;28;20373;-58
2022/06/21 13:28:30;;;;;;;;;;;;;;;24.21;27.83;97573.59;5004600;28;19930;-58
2022/06/21 13:31:01;;;;;;;;;;;;;;;24.24;27.67;97572.78;4986487;28;20011;-59
2022/06/21 13:33:48;;;;;;;;;;;;;;;24.21;29.33;97579.16;5005812;28;20523;-57
2022/06/21 13:36:18;;;;;;;;;;;;;;;24.22;28.94;97591.81;5005151;28;19925;-58
2022/06/21 13:38:46;;;;;;;;;;;;;;;24.13;30.91;97572.88;5006387;28;20406;-57
2022/06/21 13:44:00;;;;;;;;;;;;;;;24.23;29.88;97583.06;4986854;28;19932;-58
2022/06/21 13:46:38;;;;;;;;;;;;;;;24.29;28.80;97587.00;4986395;28;20352;-57
2022/06/21 13:49:12;;;;;;;;;;;;;;;24.21;30.02;97601.34;4986168;28;19925;-58
2022/06/21 13:51:44;;;;;;;;;;;;;;;24.25;31.08;97591.00;4986248;28;19979;-58
2022/06/21 13:54:15;;;;;;;;;;;;;;;24.09;32.10;97585.22;4990334;28;20037;-58
2022/06/21 13:56:46;;;;;;;;;;;;;;;24.19;32.37;97576.00;4993868;28;20502;-58
2022/06/21 13:59:18;;;;;;;;;;;;;;;24.06;31.35;97575.69;4991083;28;19972;-57
2022/06/21 14:01:50;;;;;;;;;;;;;;;24.05;32.88;97574.91;4989755;28;19926;-57
2022/06/21 14:04:20;;;;;;;;;;;;;;;24.18;28.91;97580.78;4992192;28;20396;-58
2022/06/21 14:06:50;;;;;;;;;;;;;;;24.12;32.33;97581.59;4957075;28;19984;-58
2022/06/21 14:12:19;;;;;;;;;;;;;;;24.31;32.39;97589.38;4988049;28;19926;-59
2022/06/21 14:14:49;;;;;;;;;;;;;;;24.23;32.36;97583.06;4989102;28;19941;-57
2022/06/21 14:20:15;;;;;;;;;;;;;;;24.51;31.41;97575.75;4987511;28;20322;-57
2022/06/21 14:22:45;;;;;;;;;;;;;;;24.48;28.22;97559.88;4988465;28;20109;-56
2022/06/21 14:25:15;;;;;;;;;;;;;;;24.61;27.60;97555.41;4985906;28;19930;-59
2022/06/21 14:27:45;;;;;;;;;;;;;;;24.84;26.64;97543.63;4972090;28;19930;-57
2022/06/21 14:30:14;;;;;;;;;;;;;;;24.93;25.52;97535.59;4991108;28;19933;-58
2022/06/21 14:33:13;;;;;;;;;;;;;;;24.89;25.60;97534.84;4991447;28;19926;-58
2022/06/21 14:35:42;;;;;;;;;;;;;;;24.82;25.45;97529.34;4988055;28;19941;-58
2022/06/21 14:38:12;;;;;;;;;;;;;;;24.87;25.46;97523.34;4991311;28;19926;-54
2022/06/21 14:40:41;;;;;;;;;;;;;;;24.97;25.55;97521.63;4972739;28;19956;-58
2022/06/21 14:43:14;;;;;;;;;;;;;;;25.00;23.86;97523.59;4987926;28;20559;-55
2022/06/21 14:45:45;;;;;;;;;;;;;;;25.00;27.39;97524.38;4989190;28;19932;-58
2022/06/21 14:48:18;;;;;;;;;;;;;;;24.98;23.38;97515.69;4990434;28;20107;-57
2022/06/21 14:50:47;;;;;;;;;;;;;;;25.00;22.68;97512.47;4988653;28;19925;-59